sensor_id;sensor_type;location;lat;lon;timestamp;P1;durP1;ratioP1;P2;durP2;ratioP2
33459;SDS011;19795;53.160;6.612;2022-12-16T05:25:02;33.17;;;21.80;;
33459;SDS011;19795;53.160;6.612;2022-12-16T05:30:30;35.55;;;24.67;;
33459;SDS011;19795;53.160;6.612;2022-12-16T05:33:07;35.75;;;26.48;;
33459;SDS011;19795;53.160;6.612;2022-12-16T05:35:52;35.47;;;24.75;;
33459;SDS011;19795;53.160;6.612;2022-12-16T05:38:36;42.13;;;28.35;;
33459;SDS011;19795;53.160;6.612;2022-12-16T05:41:20;39.55;;;27.58;;
33459;SDS011;19795;53.160;6.612;2022-12-16T05:44:04;44.63;;;26.95;;
33459;SDS011;19795;53.160;6.612;2022-12-16T05:49:32;34.40;;;22.65;;
33459;SDS011;19795;53.160;6.612;2022-12-16T05:52:17;45.72;;;29.55;;
33459;SDS011;19795;53.160;6.612;2022-12-16T05:55:01;39.97;;;25.88;;
33459;SDS011;19795;53.160;6.612;2022-12-16T05:58:02;37.63;;;27.40;;
33459;SDS011;19795;53.160;6.612;2022-12-16T06:00:46;43.80;;;29.05;;
33459;SDS011;19795;53.160;6.612;2022-12-16T06:03:30;39.75;;;27.75;;
33459;SDS011;19795;53.160;6.612;2022-12-16T06:06:14;37.90;;;24.23;;
33459;SDS011;19795;53.160;6.612;2022-12-16T06:08:58;38.25;;;27.20;;
33459;SDS011;19795;53.160;6.612;2022-12-16T06:11:43;42.70;;;28.40;;
33459;SDS011;19795;53.160;6.612;2022-12-16T06:14:27;40.53;;;27.23;;
33459;SDS011;19795;53.160;6.612;2022-12-16T06:17:11;25.92;;;17.52;;
33459;SDS011;19795;53.160;6.612;2022-12-16T06:19:55;33.13;;;22.52;;
33459;SDS011;19795;53.160;6.612;2022-12-16T06:22:39;36.95;;;24.35;;
33459;SDS011;19795;53.160;6.612;2022-12-16T06:25:23;44.33;;;30.80;;
33459;SDS011;19795;53.160;6.612;2022-12-16T06:28:07;32.90;;;22.17;;
33459;SDS011;19795;53.160;6.612;2022-12-16T06:30:51;42.40;;;28.88;;
33459;SDS011;19795;53.160;6.612;2022-12-16T06:33:35;37.53;;;26.15;;
33459;SDS011;19795;53.160;6.612;2022-12-16T06:36:19;45.53;;;28.85;;
33459;SDS011;19795;53.160;6.612;2022-12-16T06:39:04;48.63;;;33.10;;
33459;SDS011;19795;53.160;6.612;2022-12-16T06:41:48;42.25;;;29.25;;
33459;SDS011;19795;53.160;6.612;2022-12-16T06:44:32;45.45;;;30.17;;
33459;SDS011;19795;53.160;6.612;2022-12-16T06:47:17;35.90;;;22.80;;
33459;SDS011;19795;53.160;6.612;2022-12-16T06:52:46;36.50;;;27.13;;
33459;SDS011;19795;53.160;6.612;2022-12-16T06:55:30;48.72;;;31.40;;
33459;SDS011;19795;53.160;6.612;2022-12-16T06:58:14;43.78;;;31.85;;
33459;SDS011;19795;53.160;6.612;2022-12-16T07:00:58;43.08;;;30.38;;
33459;SDS011;19795;53.160;6.612;2022-12-16T07:03:42;45.88;;;31.48;;
33459;SDS011;19795;53.160;6.612;2022-12-16T07:06:26;39.22;;;27.33;;
33459;SDS011;19795;53.160;6.612;2022-12-16T07:09:30;46.30;;;29.60;;
33459;SDS011;19795;53.160;6.612;2022-12-16T07:12:19;41.30;;;30.02;;
33459;SDS011;19795;53.160;6.612;2022-12-16T07:15:03;45.22;;;28.90;;
33459;SDS011;19795;53.160;6.612;2022-12-16T07:17:48;32.30;;;20.73;;
33459;SDS011;19795;53.160;6.612;2022-12-16T07:20:32;47.80;;;28.85;;
33459;SDS011;19795;53.160;6.612;2022-12-16T07:23:16;46.72;;;30.83;;
33459;SDS011;19795;53.160;6.612;2022-12-16T07:26:00;41.88;;;28.35;;
33459;SDS011;19795;53.160;6.612;2022-12-16T07:28:44;45.55;;;30.67;;
33459;SDS011;19795;53.160;6.612;2022-12-16T07:31:28;45.90;;;29.17;;
33459;SDS011;19795;53.160;6.612;2022-12-16T07:34:12;42.33;;;30.48;;
33459;SDS011;19795;53.160;6.612;2022-12-16T07:36:56;43.10;;;30.08;;
33459;SDS011;19795;53.160;6.612;2022-12-16T07:39:40;47.13;;;30.95;;
33459;SDS011;19795;53.160;6.612;2022-12-16T07:42:24;42.97;;;29.52;;
33459;SDS011;19795;53.160;6.612;2022-12-16T07:45:08;44.08;;;30.02;;
33459;SDS011;19795;53.160;6.612;2022-12-16T07:50:37;42.22;;;29.05;;
33459;SDS011;19795;53.160;6.612;2022-12-16T07:53:21;43.55;;;30.20;;
33459;SDS011;19795;53.160;6.612;2022-12-16T07:56:06;45.55;;;30.80;;
33459;SDS011;19795;53.160;6.612;2022-12-16T07:58:51;44.97;;;29.85;;
33459;SDS011;19795;53.160;6.612;2022-12-16T08:01:34;49.35;;;31.67;;
33459;SDS011;19795;53.160;6.612;2022-12-16T08:04:19;49.55;;;30.83;;
33459;SDS011;19795;53.160;6.612;2022-12-16T08:07:03;47.33;;;30.63;;
33459;SDS011;19795;53.160;6.612;2022-12-16T08:09:47;45.53;;;31.15;;
33459;SDS011;19795;53.160;6.612;2022-12-16T08:12:31;44.40;;;30.35;;
33459;SDS011;19795;53.160;6.612;2022-12-16T08:15:17;43.92;;;31.05;;
33459;SDS011;19795;53.160;6.612;2022-12-16T08:18:01;46.45;;;30.63;;
33459;SDS011;19795;53.160;6.612;2022-12-16T08:20:45;45.30;;;30.58;;
33459;SDS011;19795;53.160;6.612;2022-12-16T08:23:29;47.60;;;32.45;;
33459;SDS011;19795;53.160;6.612;2022-12-16T08:28:58;46.55;;;29.77;;
33459;SDS011;19795;53.160;6.612;2022-12-16T08:31:42;44.80;;;30.50;;
33459;SDS011;19795;53.160;6.612;2022-12-16T08:34:26;49.53;;;30.85;;
33459;SDS011;19795;53.160;6.612;2022-12-16T08:37:10;46.13;;;31.05;;
33459;SDS011;19795;53.160;6.612;2022-12-16T08:42:39;41.13;;;30.13;;
33459;SDS011;19795;53.160;6.612;2022-12-16T08:45:24;46.33;;;31.83;;
33459;SDS011;19795;53.160;6.612;2022-12-16T08:48:08;45.22;;;29.77;;
33459;SDS011;19795;53.160;6.612;2022-12-16T08:53:37;41.17;;;28.25;;
33459;SDS011;19795;53.160;6.612;2022-12-16T08:56:21;44.75;;;29.88;;
33459;SDS011;19795;53.160;6.612;2022-12-16T08:59:05;45.58;;;30.83;;
33459;SDS011;19795;53.160;6.612;2022-12-16T09:01:49;45.70;;;30.60;;
33459;SDS011;19795;53.160;6.612;2022-12-16T09:04:34;46.30;;;30.30;;
33459;SDS011;19795;53.160;6.612;2022-12-16T09:07:18;43.72;;;30.30;;
33459;SDS011;19795;53.160;6.612;2022-12-16T09:10:03;44.72;;;29.42;;
33459;SDS011;19795;53.160;6.612;2022-12-16T09:12:47;46.50;;;30.98;;
33459;SDS011;19795;53.160;6.612;2022-12-16T09:15:32;46.13;;;29.83;;
33459;SDS011;19795;53.160;6.612;2022-12-16T09:18:16;46.08;;;30.42;;
33459;SDS011;19795;53.160;6.612;2022-12-16T09:21:00;47.28;;;30.83;;
33459;SDS011;19795;53.160;6.612;2022-12-16T09:23:44;50.70;;;30.92;;
33459;SDS011;19795;53.160;6.612;2022-12-16T09:26:28;46.17;;;31.50;;
33459;SDS011;19795;53.160;6.612;2022-12-16T09:29:13;48.42;;;30.65;;
33459;SDS011;19795;53.160;6.612;2022-12-16T09:31:57;46.45;;;26.65;;
33459;SDS011;19795;53.160;6.612;2022-12-16T09:34:41;49.00;;;30.48;;
33459;SDS011;19795;53.160;6.612;2022-12-16T09:37:25;48.65;;;30.60;;
33459;SDS011;19795;53.160;6.612;2022-12-16T09:40:11;59.22;;;30.45;;
33459;SDS011;19795;53.160;6.612;2022-12-16T09:46:05;49.08;;;30.98;;
33459;SDS011;19795;53.160;6.612;2022-12-16T09:49:02;52.80;;;30.67;;
33459;SDS011;19795;53.160;6.612;2022-12-16T09:51:57;53.22;;;33.28;;
33459;SDS011;19795;53.160;6.612;2022-12-16T09:54:43;50.83;;;30.00;;
33459;SDS011;19795;53.160;6.612;2022-12-16T09:57:34;57.95;;;31.85;;
33459;SDS011;19795;53.160;6.612;2022-12-16T10:00:21;56.70;;;30.83;;
33459;SDS011;19795;53.160;6.612;2022-12-16T10:09:06;56.60;;;28.63;;
33459;SDS011;19795;53.160;6.612;2022-12-16T10:15:18;58.13;;;30.20;;
33459;SDS011;19795;53.160;6.612;2022-12-16T10:18:16;54.22;;;29.20;;
33459;SDS011;19795;53.160;6.612;2022-12-16T10:21:28;58.42;;;30.45;;
33459;SDS011;19795;53.160;6.612;2022-12-16T10:24:22;64.72;;;32.42;;
33459;SDS011;19795;53.160;6.612;2022-12-16T10:27:27;65.28;;;30.98;;
33459;SDS011;19795;53.160;6.612;2022-12-16T10:30:19;62.00;;;32.78;;
33459;SDS011;19795;53.160;6.612;2022-12-16T10:33:03;65.72;;;32.15;;
33459;SDS011;19795;53.160;6.612;2022-12-16T10:35:51;69.80;;;33.47;;
33459;SDS011;19795;53.160;6.612;2022-12-16T10:38:41;65.13;;;32.45;;
33459;SDS011;19795;53.160;6.612;2022-12-16T10:41:36;75.55;;;35.67;;
33459;SDS011;19795;53.160;6.612;2022-12-16T10:47:25;67.65;;;33.20;;
33459;SDS011;19795;53.160;6.612;2022-12-16T10:50:13;65.38;;;32.28;;
33459;SDS011;19795;53.160;6.612;2022-12-16T10:52:59;66.43;;;32.90;;
33459;SDS011;19795;53.160;6.612;2022-12-16T10:58:57;70.32;;;33.17;;
33459;SDS011;19795;53.160;6.612;2022-12-16T11:01:56;70.00;;;30.38;;
33459;SDS011;19795;53.160;6.612;2022-12-16T11:04:41;68.35;;;31.13;;
33459;SDS011;19795;53.160;6.612;2022-12-16T11:19:44;66.13;;;32.83;;
33459;SDS011;19795;53.160;6.612;2022-12-16T11:22:22;65.82;;;32.40;;
33459;SDS011;19795;53.160;6.612;2022-12-16T11:25:17;69.57;;;32.38;;
33459;SDS011;19795;53.160;6.612;2022-12-16T11:28:16;68.22;;;31.75;;
33459;SDS011;19795;53.160;6.612;2022-12-16T11:31:04;61.45;;;32.08;;
33459;SDS011;19795;53.160;6.612;2022-12-16T11:33:50;65.82;;;31.73;;
33459;SDS011;19795;53.160;6.612;2022-12-16T11:36:37;64.88;;;32.97;;
33459;SDS011;19795;53.160;6.612;2022-12-16T11:39:23;71.25;;;33.83;;
33459;SDS011;19795;53.160;6.612;2022-12-16T11:42:13;68.13;;;33.47;;
33459;SDS011;19795;53.160;6.612;2022-12-16T11:45:03;68.82;;;35.30;;
33459;SDS011;19795;53.160;6.612;2022-12-16T11:47:53;74.18;;;34.65;;
33459;SDS011;19795;53.160;6.612;2022-12-16T11:50:41;69.97;;;32.45;;
33459;SDS011;19795;53.160;6.612;2022-12-16T11:53:43;69.40;;;31.92;;
33459;SDS011;19795;53.160;6.612;2022-12-16T11:56:29;64.78;;;32.85;;
33459;SDS011;19795;53.160;6.612;2022-12-16T11:59:25;68.45;;;33.45;;
33459;SDS011;19795;53.160;6.612;2022-12-16T12:02:35;69.88;;;33.70;;
33459;SDS011;19795;53.160;6.612;2022-12-16T12:05:29;64.45;;;31.52;;
33459;SDS011;19795;53.160;6.612;2022-12-16T12:08:24;56.53;;;32.25;;
33459;SDS011;19795;53.160;6.612;2022-12-16T12:11:32;61.83;;;31.77;;
33459;SDS011;19795;53.160;6.612;2022-12-16T12:26:38;56.30;;;30.42;;
33459;SDS011;19795;53.160;6.612;2022-12-16T12:36:00;63.33;;;32.75;;
33459;SDS011;19795;53.160;6.612;2022-12-16T12:48:13;58.65;;;31.92;;
33459;SDS011;19795;53.160;6.612;2022-12-16T12:53:57;70.88;;;33.22;;
33459;SDS011;19795;53.160;6.612;2022-12-16T12:56:46;64.07;;;33.03;;
33459;SDS011;19795;53.160;6.612;2022-12-16T12:59:48;67.20;;;32.85;;
33459;SDS011;19795;53.160;6.612;2022-12-16T13:03:01;66.15;;;31.33;;
33459;SDS011;19795;53.160;6.612;2022-12-16T13:06:06;73.85;;;33.40;;
33459;SDS011;19795;53.160;6.612;2022-12-16T13:11:35;65.57;;;31.48;;
33459;SDS011;19795;53.160;6.612;2022-12-16T13:17:16;70.68;;;32.72;;
33459;SDS011;19795;53.160;6.612;2022-12-16T13:20:02;72.80;;;33.35;;
33459;SDS011;19795;53.160;6.612;2022-12-16T13:22:47;67.53;;;31.70;;
33459;SDS011;19795;53.160;6.612;2022-12-16T13:25:52;67.90;;;33.00;;
33459;SDS011;19795;53.160;6.612;2022-12-16T13:28:37;65.13;;;31.30;;
33459;SDS011;19795;53.160;6.612;2022-12-16T13:31:56;66.05;;;32.80;;
33459;SDS011;19795;53.160;6.612;2022-12-16T13:34:43;67.95;;;32.22;;
33459;SDS011;19795;53.160;6.612;2022-12-16T13:37:27;75.35;;;33.47;;
33459;SDS011;19795;53.160;6.612;2022-12-16T13:40:19;69.68;;;33.10;;
33459;SDS011;19795;53.160;6.612;2022-12-16T13:43:04;69.38;;;32.15;;
33459;SDS011;19795;53.160;6.612;2022-12-16T13:46:19;70.25;;;34.10;;
33459;SDS011;19795;53.160;6.612;2022-12-16T13:55:17;67.30;;;33.60;;
33459;SDS011;19795;53.160;6.612;2022-12-16T13:58:10;69.32;;;32.58;;
33459;SDS011;19795;53.160;6.612;2022-12-16T14:04:43;64.13;;;30.75;;
33459;SDS011;19795;53.160;6.612;2022-12-16T14:07:34;70.22;;;33.22;;
33459;SDS011;19795;53.160;6.612;2022-12-16T14:10:30;63.95;;;32.10;;
33459;SDS011;19795;53.160;6.612;2022-12-16T14:13:30;72.13;;;33.05;;
33459;SDS011;19795;53.160;6.612;2022-12-16T14:25:41;67.63;;;31.77;;
33459;SDS011;19795;53.160;6.612;2022-12-16T14:34:17;65.88;;;31.70;;
33459;SDS011;19795;53.160;6.612;2022-12-16T14:40:21;66.43;;;31.38;;
33459;SDS011;19795;53.160;6.612;2022-12-16T14:43:12;60.90;;;29.88;;
33459;SDS011;19795;53.160;6.612;2022-12-16T14:45:58;69.63;;;31.10;;
33459;SDS011;19795;53.160;6.612;2022-12-16T14:48:44;65.18;;;32.20;;
33459;SDS011;19795;53.160;6.612;2022-12-16T14:51:34;63.85;;;31.58;;
33459;SDS011;19795;53.160;6.612;2022-12-16T14:54:24;57.20;;;29.08;;
33459;SDS011;19795;53.160;6.612;2022-12-16T14:57:12;66.28;;;30.30;;
33459;SDS011;19795;53.160;6.612;2022-12-16T14:59:59;63.78;;;29.88;;
33459;SDS011;19795;53.160;6.612;2022-12-16T15:02:44;71.22;;;32.28;;
33459;SDS011;19795;53.160;6.612;2022-12-16T15:05:32;67.50;;;32.78;;
33459;SDS011;19795;53.160;6.612;2022-12-16T15:08:18;64.15;;;31.50;;
33459;SDS011;19795;53.160;6.612;2022-12-16T15:11:04;72.07;;;31.88;;
33459;SDS011;19795;53.160;6.612;2022-12-16T15:13:53;69.82;;;32.58;;
33459;SDS011;19795;53.160;6.612;2022-12-16T15:16:43;76.93;;;34.40;;
33459;SDS011;19795;53.160;6.612;2022-12-16T15:19:28;66.18;;;32.83;;
33459;SDS011;19795;53.160;6.612;2022-12-16T15:22:17;70.22;;;33.70;;
33459;SDS011;19795;53.160;6.612;2022-12-16T15:27:55;78.15;;;31.65;;
33459;SDS011;19795;53.160;6.612;2022-12-16T15:30:40;68.18;;;30.90;;
33459;SDS011;19795;53.160;6.612;2022-12-16T15:33:30;74.50;;;31.13;;
33459;SDS011;19795;53.160;6.612;2022-12-16T15:36:25;68.53;;;30.75;;
33459;SDS011;19795;53.160;6.612;2022-12-16T15:42:19;75.05;;;31.38;;
33459;SDS011;19795;53.160;6.612;2022-12-16T15:48:11;68.13;;;33.58;;
33459;SDS011;19795;53.160;6.612;2022-12-16T15:51:02;76.85;;;34.17;;
33459;SDS011;19795;53.160;6.612;2022-12-16T15:54:01;73.85;;;33.95;;
33459;SDS011;19795;53.160;6.612;2022-12-16T15:57:00;74.50;;;34.13;;
33459;SDS011;19795;53.160;6.612;2022-12-16T16:02:43;69.63;;;31.05;;
33459;SDS011;19795;53.160;6.612;2022-12-16T16:05:30;65.28;;;33.60;;
33459;SDS011;19795;53.160;6.612;2022-12-16T16:08:14;79.45;;;35.00;;
33459;SDS011;19795;53.160;6.612;2022-12-16T16:10:59;75.22;;;35.78;;
33459;SDS011;19795;53.160;6.612;2022-12-16T16:13:43;74.88;;;37.53;;
33459;SDS011;19795;53.160;6.612;2022-12-16T16:16:27;74.07;;;35.20;;
33459;SDS011;19795;53.160;6.612;2022-12-16T16:19:14;71.13;;;34.50;;
33459;SDS011;19795;53.160;6.612;2022-12-16T16:22:06;78.07;;;35.13;;
33459;SDS011;19795;53.160;6.612;2022-12-16T16:24:56;75.75;;;36.20;;
33459;SDS011;19795;53.160;6.612;2022-12-16T16:27:40;80.72;;;35.72;;
33459;SDS011;19795;53.160;6.612;2022-12-16T16:30:24;81.45;;;36.20;;
33459;SDS011;19795;53.160;6.612;2022-12-16T16:33:08;74.38;;;33.33;;
33459;SDS011;19795;53.160;6.612;2022-12-16T16:35:52;80.28;;;35.15;;
33459;SDS011;19795;53.160;6.612;2022-12-16T16:38:36;84.35;;;37.63;;
33459;SDS011;19795;53.160;6.612;2022-12-16T16:41:20;72.65;;;37.80;;
33459;SDS011;19795;53.160;6.612;2022-12-16T16:44:04;80.07;;;35.35;;
33459;SDS011;19795;53.160;6.612;2022-12-16T16:46:48;77.43;;;36.47;;
33459;SDS011;19795;53.160;6.612;2022-12-16T16:52:25;78.57;;;38.85;;
33459;SDS011;19795;53.160;6.612;2022-12-16T16:55:17;79.60;;;39.50;;
33459;SDS011;19795;53.160;6.612;2022-12-16T16:58:04;78.30;;;37.85;;
33459;SDS011;19795;53.160;6.612;2022-12-16T17:00:49;68.15;;;35.10;;
33459;SDS011;19795;53.160;6.612;2022-12-16T17:03:34;70.68;;;34.28;;
33459;SDS011;19795;53.160;6.612;2022-12-16T17:06:18;73.75;;;36.22;;
33459;SDS011;19795;53.160;6.612;2022-12-16T17:09:02;73.25;;;35.85;;
33459;SDS011;19795;53.160;6.612;2022-12-16T17:11:46;80.35;;;37.97;;
33459;SDS011;19795;53.160;6.612;2022-12-16T17:14:30;72.20;;;36.13;;
33459;SDS011;19795;53.160;6.612;2022-12-16T17:17:14;73.38;;;35.15;;
33459;SDS011;19795;53.160;6.612;2022-12-16T17:19:58;71.60;;;34.83;;
33459;SDS011;19795;53.160;6.612;2022-12-16T17:22:42;72.78;;;34.80;;
33459;SDS011;19795;53.160;6.612;2022-12-16T17:28:10;72.28;;;34.22;;
33459;SDS011;19795;53.160;6.612;2022-12-16T17:30:55;73.28;;;34.42;;
33459;SDS011;19795;53.160;6.612;2022-12-16T17:33:39;64.97;;;33.83;;
33459;SDS011;19795;53.160;6.612;2022-12-16T17:36:23;70.93;;;35.30;;
33459;SDS011;19795;53.160;6.612;2022-12-16T17:39:12;73.97;;;36.05;;
33459;SDS011;19795;53.160;6.612;2022-12-16T17:41:56;70.97;;;33.30;;
33459;SDS011;19795;53.160;6.612;2022-12-16T17:44:40;74.28;;;33.25;;
33459;SDS011;19795;53.160;6.612;2022-12-16T17:47:24;69.50;;;32.85;;
33459;SDS011;19795;53.160;6.612;2022-12-16T17:50:09;62.72;;;30.90;;
33459;SDS011;19795;53.160;6.612;2022-12-16T17:52:54;70.90;;;29.55;;
33459;SDS011;19795;53.160;6.612;2022-12-16T17:55:39;92.00;;;34.92;;
33459;SDS011;19795;53.160;6.612;2022-12-16T17:58:31;75.40;;;34.35;;
33459;SDS011;19795;53.160;6.612;2022-12-16T18:01:16;69.45;;;31.10;;
33459;SDS011;19795;53.160;6.612;2022-12-16T18:04:01;85.15;;;32.45;;
33459;SDS011;19795;53.160;6.612;2022-12-16T18:06:45;68.72;;;31.38;;
33459;SDS011;19795;53.160;6.612;2022-12-16T18:09:46;87.82;;;32.00;;
33459;SDS011;19795;53.160;6.612;2022-12-16T18:12:30;86.10;;;35.28;;
33459;SDS011;19795;53.160;6.612;2022-12-16T18:15:15;89.53;;;30.88;;
33459;SDS011;19795;53.160;6.612;2022-12-16T18:17:59;80.72;;;29.63;;
33459;SDS011;19795;53.160;6.612;2022-12-16T18:20:44;118.53;;;31.23;;
33459;SDS011;19795;53.160;6.612;2022-12-16T18:23:31;132.70;;;28.42;;
33459;SDS011;19795;53.160;6.612;2022-12-16T18:26:27;143.52;;;29.23;;
33459;SDS011;19795;53.160;6.612;2022-12-16T18:29:12;188.02;;;32.03;;
33459;SDS011;19795;53.160;6.612;2022-12-16T18:31:56;152.82;;;31.08;;
33459;SDS011;19795;53.160;6.612;2022-12-16T18:34:40;107.38;;;31.48;;
33459;SDS011;19795;53.160;6.612;2022-12-16T18:37:24;138.55;;;30.40;;
33459;SDS011;19795;53.160;6.612;2022-12-16T18:40:08;125.22;;;31.40;;
33459;SDS011;19795;53.160;6.612;2022-12-16T18:45:37;168.52;;;29.80;;
33459;SDS011;19795;53.160;6.612;2022-12-16T18:48:31;161.93;;;30.83;;
33459;SDS011;19795;53.160;6.612;2022-12-16T18:51:16;187.45;;;32.03;;
33459;SDS011;19795;53.160;6.612;2022-12-16T18:54:00;136.75;;;30.42;;
33459;SDS011;19795;53.160;6.612;2022-12-16T18:56:44;169.20;;;28.10;;
33459;SDS011;19795;53.160;6.612;2022-12-16T18:59:28;193.13;;;26.67;;
33459;SDS011;19795;53.160;6.612;2022-12-16T19:02:12;182.93;;;28.25;;
33459;SDS011;19795;53.160;6.612;2022-12-16T19:04:56;121.50;;;28.75;;
33459;SDS011;19795;53.160;6.612;2022-12-16T19:07:40;204.75;;;29.05;;
33459;SDS011;19795;53.160;6.612;2022-12-16T19:10:24;157.95;;;27.88;;
33459;SDS011;19795;53.160;6.612;2022-12-16T19:13:11;231.80;;;31.40;;
33459;SDS011;19795;53.160;6.612;2022-12-16T19:15:56;153.35;;;28.40;;
33459;SDS011;19795;53.160;6.612;2022-12-16T19:18:41;211.02;;;33.45;;
33459;SDS011;19795;53.160;6.612;2022-12-16T19:21:25;130.98;;;28.95;;
33459;SDS011;19795;53.160;6.612;2022-12-16T19:24:09;225.27;;;33.10;;
33459;SDS011;19795;53.160;6.612;2022-12-16T19:26:53;203.35;;;32.80;;
33459;SDS011;19795;53.160;6.612;2022-12-16T19:29:37;139.60;;;30.25;;
33459;SDS011;19795;53.160;6.612;2022-12-16T19:32:21;157.05;;;29.23;;
33459;SDS011;19795;53.160;6.612;2022-12-16T19:35:05;120.43;;;27.77;;
33459;SDS011;19795;53.160;6.612;2022-12-16T19:37:50;190.38;;;29.02;;
33459;SDS011;19795;53.160;6.612;2022-12-16T19:40:34;134.98;;;29.55;;
33459;SDS011;19795;53.160;6.612;2022-12-16T19:43:18;188.55;;;28.58;;
33459;SDS011;19795;53.160;6.612;2022-12-16T19:46:03;148.43;;;29.33;;
33459;SDS011;19795;53.160;6.612;2022-12-16T19:48:48;185.18;;;28.45;;
33459;SDS011;19795;53.160;6.612;2022-12-16T19:51:33;110.55;;;29.60;;
33459;SDS011;19795;53.160;6.612;2022-12-16T19:54:17;126.25;;;27.85;;
33459;SDS011;19795;53.160;6.612;2022-12-16T19:57:01;107.45;;;25.77;;
33459;SDS011;19795;53.160;6.612;2022-12-16T19:59:46;147.20;;;25.52;;
33459;SDS011;19795;53.160;6.612;2022-12-16T20:02:30;123.70;;;25.00;;
33459;SDS011;19795;53.160;6.612;2022-12-16T20:05:15;77.93;;;26.05;;
33459;SDS011;19795;53.160;6.612;2022-12-16T20:07:59;122.90;;;26.73;;
33459;SDS011;19795;53.160;6.612;2022-12-16T20:10:43;116.90;;;25.42;;
33459;SDS011;19795;53.160;6.612;2022-12-16T20:13:27;205.77;;;24.48;;
33459;SDS011;19795;53.160;6.612;2022-12-16T20:16:11;170.23;;;26.83;;
33459;SDS011;19795;53.160;6.612;2022-12-16T20:19:15;187.93;;;29.00;;
33459;SDS011;19795;53.160;6.612;2022-12-16T20:22:00;141.60;;;28.20;;
33459;SDS011;19795;53.160;6.612;2022-12-16T20:24:44;121.80;;;26.90;;
33459;SDS011;19795;53.160;6.612;2022-12-16T20:27:28;119.47;;;27.38;;
33459;SDS011;19795;53.160;6.612;2022-12-16T20:30:12;123.50;;;28.02;;
33459;SDS011;19795;53.160;6.612;2022-12-16T20:32:57;83.90;;;29.55;;
33459;SDS011;19795;53.160;6.612;2022-12-16T20:35:41;113.80;;;30.15;;
33459;SDS011;19795;53.160;6.612;2022-12-16T20:38:25;126.68;;;29.80;;
33459;SDS011;19795;53.160;6.612;2022-12-16T20:41:09;98.32;;;30.10;;
33459;SDS011;19795;53.160;6.612;2022-12-16T20:43:53;171.57;;;32.33;;
33459;SDS011;19795;53.160;6.612;2022-12-16T20:46:37;97.30;;;29.92;;
33459;SDS011;19795;53.160;6.612;2022-12-16T20:52:05;123.33;;;29.23;;
33459;SDS011;19795;53.160;6.612;2022-12-16T20:54:50;115.50;;;30.63;;
33459;SDS011;19795;53.160;6.612;2022-12-16T20:57:34;142.52;;;31.15;;
33459;SDS011;19795;53.160;6.612;2022-12-16T21:00:18;108.43;;;30.58;;
33459;SDS011;19795;53.160;6.612;2022-12-16T21:05:51;95.78;;;29.48;;
33459;SDS011;19795;53.160;6.612;2022-12-16T21:08:36;139.82;;;30.70;;
33459;SDS011;19795;53.160;6.612;2022-12-16T21:11:20;88.55;;;29.05;;
33459;SDS011;19795;53.160;6.612;2022-12-16T21:14:04;79.63;;;26.55;;
33459;SDS011;19795;53.160;6.612;2022-12-16T21:16:48;71.95;;;25.10;;
33459;SDS011;19795;53.160;6.612;2022-12-16T21:19:32;65.47;;;25.33;;
33459;SDS011;19795;53.160;6.612;2022-12-16T21:22:17;63.38;;;25.77;;
33459;SDS011;19795;53.160;6.612;2022-12-16T21:25:00;73.63;;;24.75;;
33459;SDS011;19795;53.160;6.612;2022-12-16T21:27:44;59.53;;;26.13;;
33459;SDS011;19795;53.160;6.612;2022-12-16T21:30:29;53.67;;;24.55;;
33459;SDS011;19795;53.160;6.612;2022-12-16T21:33:16;57.90;;;23.52;;
33459;SDS011;19795;53.160;6.612;2022-12-16T21:36:02;57.35;;;22.67;;
33459;SDS011;19795;53.160;6.612;2022-12-16T21:38:46;70.93;;;25.15;;
33459;SDS011;19795;53.160;6.612;2022-12-16T21:41:30;78.20;;;25.58;;
33459;SDS011;19795;53.160;6.612;2022-12-16T21:44:14;60.80;;;25.75;;
33459;SDS011;19795;53.160;6.612;2022-12-16T21:46:58;58.55;;;24.80;;
33459;SDS011;19795;53.160;6.612;2022-12-16T21:49:42;66.07;;;26.83;;
33459;SDS011;19795;53.160;6.612;2022-12-16T21:52:26;70.60;;;27.50;;
33459;SDS011;19795;53.160;6.612;2022-12-16T21:55:10;65.22;;;26.95;;
33459;SDS011;19795;53.160;6.612;2022-12-16T21:57:54;76.00;;;26.80;;
33459;SDS011;19795;53.160;6.612;2022-12-16T22:00:38;50.53;;;19.77;;
33459;SDS011;19795;53.160;6.612;2022-12-16T22:03:22;56.67;;;25.45;;
33459;SDS011;19795;53.160;6.612;2022-12-16T22:06:06;63.92;;;27.15;;
33459;SDS011;19795;53.160;6.612;2022-12-16T22:08:50;59.15;;;26.88;;
33459;SDS011;19795;53.160;6.612;2022-12-16T22:11:34;55.38;;;26.05;;
33459;SDS011;19795;53.160;6.612;2022-12-16T22:14:18;76.07;;;27.75;;
33459;SDS011;19795;53.160;6.612;2022-12-16T22:17:02;61.90;;;26.73;;
33459;SDS011;19795;53.160;6.612;2022-12-16T22:19:46;59.45;;;27.58;;
33459;SDS011;19795;53.160;6.612;2022-12-16T22:22:37;76.95;;;27.58;;
33459;SDS011;19795;53.160;6.612;2022-12-16T22:25:22;59.72;;;27.30;;
33459;SDS011;19795;53.160;6.612;2022-12-16T22:28:06;62.10;;;28.60;;
33459;SDS011;19795;53.160;6.612;2022-12-16T22:30:53;57.00;;;28.30;;
33459;SDS011;19795;53.160;6.612;2022-12-16T22:33:38;77.15;;;28.38;;
33459;SDS011;19795;53.160;6.612;2022-12-16T22:36:22;56.42;;;26.25;;
33459;SDS011;19795;53.160;6.612;2022-12-16T22:39:06;55.03;;;24.90;;
33459;SDS011;19795;53.160;6.612;2022-12-16T22:41:50;60.05;;;27.27;;
33459;SDS011;19795;53.160;6.612;2022-12-16T22:44:34;56.00;;;27.02;;
